Woodville, Missouri
Current Conditions -  °F | °C
As of 9:55 PM on Friday 24 Oct 2014 (Local Time) from KIRK Reporting Station
Few Clouds Few Clouds  
Wind Chill: 64°   Ceiling: Unl
Heat Index: 64°   Visibility: 10mi
Dew Point: 60°   Wind: 5mph
Humidity: 87%   Direction: 230°SW
Pressure: 29.98"   Gusts: NA
Location:  39.6493°N, 92.4492°W
Report Text: KIRK 250255Z AUTO 23004KT 10SM FEW035 18/16 A2998 RMK AO2 SLP152 T01780156 53014
Loading
Personal Weather Stations






























Interactive Weather Map
Tropical Storm Tracking
New forecast layout! Learn more

10-Day Weather Forecast

Advertisements
Track Severe Weather on mobile